createdAt,value
2019-04-16T00:01:50.445Z,86.44
2019-04-16T00:04:24.962Z,86.24
2019-04-16T00:07:14.574Z,86.37
2019-04-16T00:09:50.335Z,85.95
2019-04-16T00:12:35.420Z,86.62
2019-04-16T00:15:07.515Z,86.68
2019-04-16T00:17:38.881Z,87.12
2019-04-16T00:20:11.619Z,87.31
2019-04-16T00:22:51.716Z,87.91
2019-04-16T00:25:23.068Z,87.33
2019-04-16T00:27:54.566Z,87.14
2019-04-16T00:30:25.996Z,87.45
2019-04-16T00:32:57.751Z,87.56
2019-04-16T00:35:29.166Z,88.19
2019-04-16T00:38:00.609Z,88.45
2019-04-16T00:40:32.046Z,87.62
2019-04-16T00:43:03.758Z,87.99
2019-04-16T00:45:35.197Z,88.00
2019-04-16T00:48:06.618Z,87.94
2019-04-16T00:50:38.019Z,87.05
2019-04-16T00:53:09.399Z,86.74
2019-04-16T00:55:42.349Z,86.83
2019-04-16T00:58:13.888Z,86.71
2019-04-16T01:00:45.261Z,86.71
2019-04-16T01:03:16.881Z,86.17
2019-04-16T01:05:48.360Z,86.54
2019-04-16T01:08:19.841Z,86.48
2019-04-16T01:10:51.296Z,86.48
2019-04-16T01:13:24.489Z,86.73
2019-04-16T01:15:55.879Z,86.51
2019-04-16T01:18:27.396Z,86.51
2019-04-16T01:20:58.923Z,86.42
2019-04-16T01:23:30.419Z,86.75
2019-04-16T01:26:01.892Z,86.72
2019-04-16T01:28:35.132Z,86.69
2019-04-16T01:31:26.229Z,86.96
2019-04-16T01:34:18.150Z,87.29
2019-04-16T01:36:51.444Z,87.52
2019-04-16T01:39:28.944Z,87.70
2019-04-16T01:42:00.347Z,87.22
2019-04-16T01:44:31.815Z,87.22
2019-04-16T01:47:04.171Z,87.74
2019-04-16T01:49:39.349Z,87.75
2019-04-16T01:52:10.863Z,87.75
2019-04-16T01:54:42.485Z,87.65
2019-04-16T01:57:13.867Z,87.67
2019-04-16T01:59:45.351Z,87.28
2019-04-16T02:02:18.028Z,87.38
2019-04-16T02:04:51.895Z,87.38
2019-04-16T02:07:27.741Z,87.36
2019-04-16T02:09:55.757Z,87.11
2019-04-16T02:12:27.198Z,86.50
2019-04-16T02:14:58.630Z,86.50
2019-04-16T02:17:29.982Z,85.91
2019-04-16T02:20:05.515Z,85.50
2019-04-16T02:22:34.820Z,85.68
2019-04-16T02:25:07.343Z,86.04
2019-04-16T02:27:39.878Z,86.10
2019-04-16T02:30:11.402Z,86.25
2019-04-16T02:32:42.960Z,86.14
2019-04-16T02:35:14.628Z,86.56
2019-04-16T02:37:46.018Z,87.18
2019-04-16T02:40:18.777Z,87.18
2019-04-16T02:42:50.604Z,87.27
2019-04-16T02:45:23.469Z,87.24
2019-04-16T02:47:55.262Z,87.26
2019-04-16T02:50:31.998Z,87.38
2019-04-16T02:53:24.172Z,87.13
2019-04-16T02:55:54.116Z,87.80
2019-04-16T02:58:33.993Z,87.80
2019-04-16T03:01:01.952Z,87.38
2019-04-16T03:03:55.401Z,88.06
2019-04-16T03:06:24.906Z,88.06
2019-04-16T03:08:56.298Z,88.17
2019-04-16T03:11:27.815Z,88.63
2019-04-16T03:13:59.521Z,89.09
2019-04-16T03:16:48.707Z,89.26
2019-04-16T03:19:21.701Z,89.41
2019-04-16T03:21:55.700Z,89.66
2019-04-16T03:24:26.340Z,89.50
2019-04-16T03:26:57.773Z,89.37
2019-04-16T03:29:30.588Z,88.80
2019-04-16T03:32:02.335Z,89.43
2019-04-16T03:34:33.711Z,89.53
2019-04-16T03:37:05.107Z,89.45
2019-04-16T03:39:36.456Z,89.29
2019-04-16T03:42:07.856Z,89.49
2019-04-16T03:44:39.345Z,89.49
2019-04-16T03:47:10.844Z,88.66
2019-04-16T03:49:42.254Z,88.16
2019-04-16T03:52:13.734Z,87.91
2019-04-16T03:54:46.158Z,87.89
2019-04-16T03:57:17.657Z,87.89
2019-04-16T03:59:49.015Z,87.82
2019-04-16T04:02:22.800Z,88.57
2019-04-16T04:04:54.573Z,88.35
2019-04-16T04:07:25.989Z,88.58
2019-04-16T04:09:58.822Z,88.33
2019-04-16T04:12:30.423Z,88.21
2019-04-16T04:15:01.916Z,88.10
2019-04-16T04:17:35.762Z,87.37
2019-04-16T04:20:08.153Z,87.96
2019-04-16T04:22:39.594Z,87.95
2019-04-16T04:25:11.056Z,88.09
2019-04-16T04:27:43.583Z,88.54
2019-04-16T04:30:17.480Z,88.30
2019-04-16T04:32:48.965Z,88.47
2019-04-16T04:35:22.168Z,87.93
2019-04-16T04:37:53.518Z,87.93
2019-04-16T04:40:24.908Z,87.78
2019-04-16T04:42:57.627Z,88.30
2019-04-16T04:45:29.501Z,88.21
2019-04-16T04:48:01.014Z,87.95
2019-04-16T04:50:35.262Z,88.03
2019-04-16T04:53:05.630Z,88.15
2019-04-16T04:55:36.988Z,88.35
2019-04-16T04:58:08.538Z,88.19
2019-04-16T05:00:40.287Z,87.84
2019-04-16T05:03:31.666Z,87.84
2019-04-16T05:06:04.708Z,87.84
2019-04-16T05:08:36.103Z,87.90
2019-04-16T05:11:07.486Z,87.69
2019-04-16T05:13:38.830Z,86.83
2019-04-16T05:16:10.243Z,86.83
2019-04-16T05:18:42.676Z,86.79
2019-04-16T05:21:17.848Z,86.96
2019-04-16T05:23:47.469Z,86.33
2019-04-16T05:26:18.887Z,86.28
2019-04-16T05:28:51.339Z,86.68
2019-04-16T05:31:25.633Z,86.68
2019-04-16T05:34:00.483Z,86.52
2019-04-16T05:36:29.041Z,86.43
2019-04-16T05:39:03.593Z,86.35
2019-04-16T05:41:34.156Z,86.57
2019-04-16T05:44:05.543Z,86.96
2019-04-16T05:46:38.363Z,86.81
2019-04-16T05:49:09.897Z,87.23
2019-04-16T05:51:41.346Z,88.68
2019-04-16T05:54:20.423Z,88.68
2019-04-16T05:56:55.462Z,88.78
2019-04-16T05:59:26.572Z,88.20
2019-04-16T06:02:00.766Z,88.61
2019-04-16T06:04:32.379Z,88.76
2019-04-16T06:07:07.545Z,88.26
2019-04-16T06:09:36.892Z,88.21
2019-04-16T06:12:08.759Z,88.07
2019-04-16T06:14:57.567Z,88.51
2019-04-16T06:17:32.173Z,88.44
2019-04-16T06:20:10.283Z,87.61
2019-04-16T06:22:55.366Z,87.94
2019-04-16T06:25:28.517Z,87.94
2019-04-16T06:28:10.896Z,87.16
2019-04-16T06:30:49.972Z,86.48
2019-04-16T06:33:35.067Z,87.13
2019-04-16T06:36:08.102Z,86.81
2019-04-16T06:38:43.983Z,86.66
2019-04-16T06:41:17.306Z,87.50
2019-04-16T06:43:50.352Z,87.23
2019-04-16T06:46:29.509Z,86.77
2019-04-16T06:49:05.551Z,87.44
2019-04-16T06:51:45.805Z,87.82
2019-04-16T06:54:25.587Z,88.05
2019-04-16T06:57:16.010Z,88.02
2019-04-16T06:59:59.448Z,88.88
2019-04-16T07:02:37.565Z,89.34
2019-04-16T07:05:32.129Z,89.92
2019-04-16T07:08:04.508Z,90.75
2019-04-16T07:10:44.797Z,91.14
2019-04-16T07:13:13.851Z,91.83
2019-04-16T07:15:45.340Z,90.92
2019-04-16T07:18:16.860Z,90.92
2019-04-16T07:20:49.012Z,90.72
2019-04-16T07:23:24.537Z,91.09
2019-04-16T07:25:54.836Z,91.56
2019-04-16T07:28:28.345Z,91.04
2019-04-16T07:31:01.717Z,91.04
2019-04-16T07:33:39.483Z,92.07
2019-04-16T07:36:30.752Z,92.15
2019-04-16T07:39:37.280Z,92.75
2019-04-16T07:43:47.059Z,93.15
2019-04-16T07:44:30.179Z,92.74
2019-04-16T07:47:21.258Z,92.70
2019-04-16T07:50:10.088Z,92.77
2019-04-16T07:52:52.078Z,92.77
2019-04-16T07:55:26.546Z,92.23
2019-04-16T07:57:59.420Z,93.41
2019-04-16T08:00:30.894Z,93.41
2019-04-16T08:03:02.660Z,92.90
2019-04-16T08:05:34.237Z,92.50
2019-04-16T08:08:05.638Z,91.76
2019-04-16T08:10:37.145Z,90.89
2019-04-16T08:13:14.214Z,90.99
2019-04-16T08:15:45.806Z,90.38
2019-04-16T08:18:17.295Z,90.38
2019-04-16T08:21:00.349Z,90.22
2019-04-16T08:23:26.708Z,89.28
2019-04-16T08:26:03.586Z,89.11
2019-04-16T08:28:33.034Z,88.77
2019-04-16T08:31:10.780Z,88.77
2019-04-16T08:33:38.178Z,89.15
2019-04-16T08:36:09.678Z,89.34
2019-04-16T08:38:41.174Z,88.41
2019-04-16T08:41:13.359Z,88.51
2019-04-16T08:43:45.008Z,87.57
2019-04-16T08:46:16.455Z,87.40
2019-04-16T08:48:49.374Z,88.01
2019-04-16T08:51:30.367Z,88.57
2019-04-16T08:53:54.382Z,89.66
2019-04-16T08:56:25.942Z,89.58
2019-04-16T08:59:00.957Z,89.32
2019-04-16T09:01:35.318Z,89.54
2019-04-16T09:04:07.163Z,89.13
2019-04-16T09:06:38.828Z,88.97
2019-04-16T09:09:27.073Z,87.56
2019-04-16T09:12:00.317Z,88.36
2019-04-16T09:14:33.640Z,88.36
2019-04-16T09:17:10.425Z,87.85
2019-04-16T09:19:44.118Z,87.58
2019-04-16T09:33:12.319Z,86.71
2019-04-16T09:48:05.468Z,84.01
2019-04-16T09:50:42.497Z,83.92
2019-04-16T09:53:12.294Z,83.26
2019-04-16T09:55:44.155Z,84.14
2019-04-16T09:58:22.145Z,84.07
2019-04-16T10:00:56.006Z,84.36
2019-04-16T10:03:29.209Z,84.44
2019-04-16T10:06:00.790Z,85.86
2019-04-16T10:08:32.408Z,86.28
2019-04-16T10:11:06.204Z,86.28
2019-04-16T10:13:37.215Z,86.98
2019-04-16T10:16:08.902Z,86.27
2019-04-16T10:21:59.766Z,85.81
2019-04-16T10:28:11.839Z,88.17
2019-04-16T10:31:03.991Z,86.15
2019-04-16T10:33:52.960Z,85.81
2019-04-16T10:36:24.818Z,86.13
2019-04-16T10:38:59.376Z,86.72
2019-04-16T10:41:51.265Z,85.72
2019-04-16T10:44:38.510Z,85.82
2019-04-16T10:47:28.682Z,84.53
2019-04-16T10:50:04.897Z,85.24
2019-04-16T10:56:56.690Z,83.24
2019-04-16T10:59:42.825Z,81.55
2019-04-16T11:02:24.795Z,80.32
2019-04-16T11:05:02.991Z,82.65
2019-04-16T11:07:38.273Z,81.92
2019-04-16T11:10:11.737Z,82.07
2019-04-16T11:12:43.203Z,83.28
2019-04-16T11:15:17.313Z,84.20
2019-04-16T11:17:48.833Z,85.12
2019-04-16T11:20:20.255Z,84.92
2019-04-16T11:22:53.096Z,85.40
2019-04-16T11:25:24.719Z,85.14
2019-04-16T11:27:56.196Z,85.71
2019-04-16T11:30:35.194Z,84.98
2019-04-16T11:33:06.593Z,85.31
2019-04-16T11:35:38.025Z,83.29
2019-04-16T11:38:09.392Z,82.79
2019-04-16T11:40:41.177Z,81.16
2019-04-16T11:43:12.885Z,81.20
2019-04-16T11:45:44.327Z,80.79
2019-04-16T11:48:15.768Z,82.75
2019-04-16T11:50:47.144Z,81.81
2019-04-16T11:53:18.687Z,81.43
2019-04-16T11:55:49.952Z,79.82
2019-04-16T11:58:28.639Z,80.39
2019-04-16T12:01:04.610Z,81.49
2019-04-16T12:03:49.804Z,82.81
2019-04-16T12:06:28.430Z,84.46
2019-04-16T12:09:00.802Z,83.66
2019-04-16T12:11:38.507Z,83.06
2019-04-16T12:14:29.663Z,83.92
2019-04-16T12:16:58.398Z,82.45
2019-04-16T12:19:46.819Z,83.09
2019-04-16T12:22:19.999Z,83.58
2019-04-16T12:25:09.389Z,83.58
2019-04-16T12:27:45.537Z,83.51
2019-04-16T12:30:28.698Z,83.67
2019-04-16T12:33:17.109Z,83.04
2019-04-16T12:35:50.300Z,82.40
2019-04-16T12:38:38.468Z,83.49
2019-04-16T12:41:27.895Z,83.52
2019-04-16T12:44:00.915Z,82.50
2019-04-16T12:46:36.720Z,83.25
2019-04-16T12:49:25.942Z,82.86
2019-04-16T12:51:59.020Z,82.77
2019-04-16T12:54:37.851Z,81.98
2019-04-16T12:57:13.986Z,81.88
2019-04-16T13:00:02.946Z,81.67
2019-04-16T13:02:41.929Z,81.39
2019-04-16T13:05:32.495Z,81.58
2019-04-16T13:08:17.582Z,81.31
2019-04-16T13:11:09.125Z,80.29
2019-04-16T13:13:58.594Z,81.49
2019-04-16T13:16:31.603Z,80.60
2019-04-16T13:19:07.681Z,79.84
2019-04-16T13:21:46.830Z,80.25
2019-04-16T13:27:05.041Z,80.34
2019-04-16T13:29:37.899Z,79.87
2019-04-16T13:32:09.443Z,80.29
2019-04-16T13:34:40.839Z,79.83
2019-04-16T13:37:12.255Z,79.70
2019-04-16T13:39:45.264Z,80.27
2019-04-16T13:42:16.663Z,80.79
2019-04-16T13:44:49.766Z,80.65
2019-04-16T13:47:21.222Z,80.72
2019-04-16T13:49:54.316Z,80.59
2019-04-16T13:52:25.812Z,80.19
2019-04-16T13:55:11.029Z,81.81
2019-04-16T13:57:53.130Z,79.78
2019-04-16T14:00:29.209Z,79.68
2019-04-16T14:03:02.322Z,81.51
2019-04-16T14:05:37.538Z,81.72
2019-04-16T14:08:06.965Z,81.96
2019-04-16T14:10:38.335Z,80.45
2019-04-16T14:13:13.461Z,80.30
2019-04-16T14:15:44.797Z,81.89
2019-04-16T14:18:17.012Z,80.77
2019-04-16T14:20:48.382Z,79.37
2019-04-16T14:23:19.765Z,79.28
2019-04-16T14:25:51.246Z,80.52
2019-04-16T14:28:22.777Z,79.61
2019-04-16T14:30:55.322Z,79.15
2019-04-16T14:33:28.433Z,79.26
2019-04-16T14:36:01.055Z,80.65
2019-04-16T14:38:37.145Z,80.30
2019-04-16T14:41:08.663Z,79.45
2019-04-16T14:43:44.629Z,79.08
2019-04-16T14:46:16.168Z,79.36
2019-04-16T14:48:47.592Z,78.21
2019-04-16T14:51:19.065Z,79.32
2019-04-16T14:53:52.313Z,79.60
2019-04-16T14:56:25.334Z,79.06
2019-04-16T14:59:04.657Z,79.40
2019-04-16T15:01:44.671Z,80.02
2019-04-16T15:04:26.484Z,78.71
2019-04-16T15:07:15.638Z,79.20
2019-04-16T15:10:01.126Z,78.98
2019-04-16T15:12:38.329Z,78.17
2019-04-16T15:15:14.122Z,79.42
2019-04-16T15:17:53.238Z,78.82
2019-04-16T15:20:26.341Z,81.66
2019-04-16T15:23:15.713Z,81.77
2019-04-16T15:26:03.765Z,81.33
2019-04-16T15:28:54.843Z,82.62
2019-04-16T15:31:34.125Z,81.77
2019-04-16T15:34:16.210Z,81.81
2019-04-16T15:36:55.061Z,82.03
2019-04-16T15:39:26.679Z,81.82
2019-04-16T15:42:17.451Z,81.85
2019-04-16T15:44:56.157Z,81.26
2019-04-16T15:47:32.496Z,81.15
2019-04-16T15:50:10.513Z,81.70
2019-04-16T15:52:46.201Z,81.79
2019-04-16T15:55:18.396Z,82.40
2019-04-16T15:58:04.681Z,81.95
2019-04-16T16:00:38.345Z,81.50
2019-04-16T16:03:27.523Z,82.33
2019-04-16T16:06:04.395Z,80.01
2019-04-16T16:08:43.496Z,80.44
2019-04-16T16:11:19.220Z,80.74
2019-04-16T16:13:50.671Z,80.43
2019-04-16T16:16:22.119Z,80.81
2019-04-16T16:18:53.491Z,80.58
2019-04-16T16:21:24.948Z,81.42
2019-04-16T16:23:56.341Z,80.75
2019-04-16T16:26:27.797Z,81.09
2019-04-16T16:28:59.293Z,80.85
2019-04-16T16:31:35.018Z,80.92
2019-04-16T16:34:03.980Z,81.42
2019-04-16T16:36:36.537Z,81.40
2019-04-16T16:39:08.702Z,81.58
2019-04-16T16:41:41.684Z,81.75
2019-04-16T16:44:13.073Z,81.75
2019-04-16T16:46:57.229Z,81.72
2019-04-16T16:49:25.175Z,82.37
2019-04-16T16:52:14.874Z,81.82
2019-04-16T16:54:47.910Z,81.75
2019-04-16T16:57:21.065Z,82.36
2019-04-16T17:00:12.499Z,83.02
2019-04-16T17:02:48.444Z,82.81
2019-04-16T17:05:21.636Z,82.73
2019-04-16T17:07:53.647Z,83.03
2019-04-16T17:10:26.227Z,83.35
2019-04-16T17:12:57.945Z,83.29
2019-04-16T17:15:30.428Z,83.06
2019-04-16T17:18:01.799Z,84.00
2019-04-16T17:20:33.188Z,84.96
2019-04-16T17:23:04.707Z,84.74
2019-04-16T17:25:37.107Z,84.67
2019-04-16T17:28:09.806Z,84.66
2019-04-16T17:30:41.427Z,85.45
2019-04-16T17:33:12.890Z,85.56
2019-04-16T17:35:46.592Z,84.97
2019-04-16T17:38:17.498Z,85.28
2019-04-16T17:40:55.725Z,85.04
2019-04-16T17:43:41.446Z,84.83
2019-04-16T17:46:24.955Z,84.80
2019-04-16T17:48:58.206Z,84.44
2019-04-16T17:51:31.283Z,83.64
2019-04-16T17:54:13.187Z,83.69
2019-04-16T17:56:56.432Z,84.64
2019-04-16T17:59:30.257Z,85.16
2019-04-16T18:02:06.204Z,85.07
2019-04-16T18:04:51.402Z,85.13
2019-04-16T18:07:27.385Z,84.54
2019-04-16T18:10:01.918Z,84.68
2019-04-16T18:12:55.159Z,84.28
2019-04-16T18:15:30.879Z,84.58
2019-04-16T18:18:06.928Z,83.45
2019-04-16T18:20:57.434Z,81.81
2019-04-16T18:23:40.436Z,81.58
2019-04-16T18:26:30.075Z,82.76
2019-04-16T18:29:15.251Z,83.35
2019-04-16T18:31:48.405Z,82.03
2019-04-16T18:34:36.778Z,81.22
2019-04-16T18:37:21.895Z,82.21
2019-04-16T18:39:55.003Z,82.55
2019-04-16T18:42:44.501Z,83.14
2019-04-16T18:45:23.538Z,83.14
2019-04-16T18:48:04.901Z,82.03
2019-04-16T18:50:30.632Z,81.84
2019-04-16T18:53:02.056Z,81.68
2019-04-16T18:55:33.482Z,82.01
2019-04-16T18:58:05.089Z,82.01
2019-04-16T19:00:38.690Z,81.32
2019-04-16T19:03:14.638Z,81.15
2019-04-16T19:05:43.632Z,81.19
2019-04-16T19:08:15.292Z,81.96
2019-04-16T19:10:46.872Z,81.28
2019-04-16T19:13:20.071Z,81.28
2019-04-16T19:15:52.306Z,81.29
2019-04-16T19:18:24.219Z,80.71
2019-04-16T19:20:55.773Z,81.63
2019-04-16T19:23:27.296Z,81.54
2019-04-16T19:25:58.862Z,80.92
2019-04-16T19:28:31.367Z,80.07
2019-04-16T19:31:02.868Z,80.07
2019-04-16T19:33:38.253Z,80.34
2019-04-16T19:36:08.041Z,80.66
2019-04-16T19:38:40.628Z,80.35
2019-04-16T19:41:12.530Z,80.85
2019-04-16T19:43:44.200Z,81.96
2019-04-16T19:46:16.829Z,81.09
2019-04-16T19:48:48.396Z,81.31
2019-04-16T19:51:20.128Z,80.93
2019-04-16T19:53:51.523Z,80.93
2019-04-16T19:56:23.983Z,81.66
2019-04-16T19:58:55.384Z,81.70
2019-04-16T20:01:27.003Z,80.51
2019-04-16T20:03:58.562Z,80.78
2019-04-16T20:06:30.216Z,79.82
2019-04-16T20:09:02.100Z,79.82
2019-04-16T20:11:35.130Z,80.38
2019-04-16T20:14:06.681Z,81.08
2019-04-16T20:16:38.248Z,79.48
2019-04-16T20:19:09.972Z,80.20
2019-04-16T20:21:41.703Z,80.20
2019-04-16T20:24:13.409Z,81.00
2019-04-16T20:26:44.873Z,80.18
2019-04-16T20:29:16.321Z,80.36
2019-04-16T20:31:47.911Z,80.78
2019-04-16T20:34:19.438Z,80.93
2019-04-16T20:36:52.241Z,80.93
2019-04-16T20:39:24.157Z,80.17
2019-04-16T20:41:59.056Z,81.83
2019-04-16T20:44:28.955Z,80.36
2019-04-16T20:47:03.305Z,80.68
2019-04-16T20:49:33.730Z,80.96
2019-04-16T20:52:05.238Z,80.17
2019-04-16T20:54:37.637Z,79.14
2019-04-16T20:57:09.055Z,79.51
2019-04-16T20:59:40.463Z,79.99
2019-04-16T21:02:11.968Z,79.92
2019-04-16T21:04:43.391Z,80.42
2019-04-16T21:07:15.527Z,80.35
2019-04-16T21:09:47.063Z,80.66
2019-04-16T21:12:18.503Z,80.50
2019-04-16T21:14:50.899Z,80.18
2019-04-16T21:17:22.947Z,80.18
2019-04-16T21:19:54.398Z,80.31
2019-04-16T21:22:28.110Z,80.33
2019-04-16T21:24:58.924Z,79.70
2019-04-16T21:27:31.952Z,80.40
2019-04-16T21:30:11.234Z,80.21
2019-04-16T21:32:54.902Z,79.86
2019-04-16T21:35:36.878Z,79.86
2019-04-16T21:38:13.019Z,79.39
2019-04-16T21:40:44.391Z,79.48
2019-04-16T21:43:15.738Z,80.15
2019-04-16T21:45:48.326Z,79.64
2019-04-16T21:48:23.909Z,79.29
2019-04-16T21:50:55.380Z,80.16
2019-04-16T21:53:27.836Z,79.99
2019-04-16T21:56:00.045Z,79.99
2019-04-16T21:58:31.502Z,80.34
2019-04-16T22:01:05.234Z,80.39
2019-04-16T22:03:41.890Z,79.47
2019-04-16T22:06:10.056Z,79.85
2019-04-16T22:08:41.774Z,80.58
2019-04-16T22:11:13.145Z,79.71
2019-04-16T22:13:44.653Z,80.00
2019-04-16T22:16:16.058Z,79.45
2019-04-16T22:18:47.428Z,80.44
2019-04-16T22:21:19.891Z,80.97
2019-04-16T22:23:51.453Z,79.54
2019-04-16T22:26:22.907Z,80.28
2019-04-16T22:28:54.276Z,81.63
2019-04-16T22:31:25.741Z,79.80
2019-04-16T22:33:57.104Z,78.96
2019-04-16T22:36:28.561Z,78.19
2019-04-16T22:39:16.561Z,79.95
2019-04-16T22:41:52.243Z,79.67
2019-04-16T22:44:25.370Z,79.03
2019-04-16T22:46:58.456Z,79.28
2019-04-16T22:49:29.826Z,79.64
2019-04-16T22:52:01.460Z,79.64
2019-04-16T22:54:32.833Z,79.50
2019-04-16T22:57:05.879Z,79.65
2019-04-16T22:59:39.389Z,79.67
2019-04-16T23:02:13.797Z,79.68
2019-04-16T23:04:45.192Z,79.85
2019-04-16T23:07:16.568Z,80.20
2019-04-16T23:09:48.565Z,80.20
2019-04-16T23:12:20.831Z,80.34
2019-04-16T23:14:52.274Z,79.93
2019-04-16T23:17:25.375Z,80.43
2019-04-16T23:19:56.927Z,81.49
2019-04-16T23:22:28.567Z,82.96
2019-04-16T23:25:01.291Z,83.45
2019-04-16T23:27:37.223Z,84.32
2019-04-16T23:30:07.186Z,85.22
2019-04-16T23:32:38.703Z,86.33
2019-04-16T23:35:11.650Z,86.53
2019-04-16T23:37:43.241Z,87.90
2019-04-16T23:40:15.721Z,88.69
2019-04-16T23:42:50.396Z,89.59
2019-04-16T23:45:32.389Z,89.59
2019-04-16T23:48:17.715Z,89.64
2019-04-16T23:50:51.789Z,90.08
2019-04-16T23:53:40.962Z,90.08
2019-04-16T23:56:20.611Z,89.77
2019-04-16T23:59:01.469Z,89.77
